createdAt,value
2019-02-25T00:00:49.870Z,17.07
2019-02-25T00:03:17.263Z,14.20
2019-02-25T00:05:44.487Z,16.27
2019-02-25T00:08:11.767Z,15.48
2019-02-25T00:10:39.047Z,13.85
2019-02-25T00:13:07.432Z,13.93
2019-02-25T00:15:36.198Z,18.65
2019-02-25T00:18:04.555Z,15.28
2019-02-25T00:20:32.836Z,16.07
2019-02-25T00:23:01.201Z,14.85
2019-02-25T00:25:29.342Z,14.18
2019-02-25T00:27:57.674Z,12.50
2019-02-25T00:30:26.199Z,12.98
2019-02-25T00:32:53.796Z,13.58
2019-02-25T00:35:21.300Z,13.80
2019-02-25T00:37:48.529Z,15.13
2019-02-25T00:40:15.738Z,12.95
2019-02-25T00:42:42.950Z,13.60
2019-02-25T00:45:11.385Z,12.40
2019-02-25T00:47:39.818Z,13.38
2019-02-25T00:50:09.634Z,13.05
2019-02-25T00:52:37.956Z,14.83
2019-02-25T00:55:06.753Z,11.43
2019-02-25T00:57:35.346Z,12.45
2019-02-25T01:00:07.654Z,13.15
2019-02-25T01:02:35.961Z,12.70
2019-02-25T01:05:03.842Z,13.55
2019-02-25T01:07:31.149Z,12.85
2019-02-25T01:09:58.350Z,11.15
2019-02-25T01:12:25.521Z,9.88
2019-02-25T01:14:52.516Z,10.68
2019-02-25T01:17:21.086Z,9.85
2019-02-25T01:19:49.718Z,11.45
2019-02-25T01:22:18.294Z,13.58
2019-02-25T01:24:47.231Z,10.13
2019-02-25T01:27:15.831Z,10.28
2019-02-25T01:29:44.598Z,10.43
2019-02-25T01:32:13.290Z,9.48
2019-02-25T01:34:42.025Z,10.45
2019-02-25T01:37:09.754Z,10.88
2019-02-25T01:39:37.514Z,12.20
2019-02-25T01:42:04.859Z,9.20
2019-02-25T01:44:32.418Z,11.40
2019-02-25T01:46:59.975Z,9.60
2019-02-25T01:49:28.258Z,14.83
2019-02-25T01:51:56.462Z,10.75
2019-02-25T01:54:24.768Z,10.00
2019-02-25T01:56:52.930Z,7.90
2019-02-25T01:59:21.174Z,11.90
2019-02-25T02:01:49.433Z,9.43
2019-02-25T02:04:17.679Z,12.60
2019-02-25T02:06:45.762Z,11.05
2019-02-25T02:09:13.048Z,11.43
2019-02-25T02:11:40.810Z,9.90
2019-02-25T02:14:09.082Z,12.75
2019-02-25T02:16:36.640Z,9.25
2019-02-25T02:19:05.549Z,11.38
2019-02-25T02:21:33.742Z,11.78
2019-02-25T02:24:02.801Z,10.03
2019-02-25T02:26:34.971Z,9.38
2019-02-25T02:29:03.418Z,8.73
2019-02-25T02:31:31.931Z,11.40
2019-02-25T02:34:00.924Z,11.80
2019-02-25T02:36:30.046Z,9.53
2019-02-25T02:39:03.206Z,8.43
2019-02-25T02:42:09.482Z,10.95
2019-02-25T02:44:38.262Z,9.15
2019-02-25T02:47:23.641Z,11.22
2019-02-25T02:49:52.554Z,8.65
2019-02-25T02:52:20.999Z,11.80
2019-02-25T02:54:48.888Z,8.68
2019-02-25T02:57:16.662Z,9.75
2019-02-25T02:59:43.855Z,10.23
2019-02-25T03:02:11.766Z,12.63
2019-02-25T03:04:39.155Z,11.95
2019-02-25T03:07:08.523Z,7.80
2019-02-25T03:09:37.335Z,9.95
2019-02-25T03:12:05.503Z,9.23
2019-02-25T03:14:34.169Z,11.65
2019-02-25T03:17:02.650Z,10.35
2019-02-25T03:19:32.058Z,10.08
2019-02-25T03:22:00.520Z,8.93
2019-02-25T03:24:28.786Z,10.55
2019-02-25T03:26:56.885Z,10.03
2019-02-25T03:29:24.424Z,9.70
2019-02-25T03:31:52.208Z,9.95
2019-02-25T03:34:20.397Z,8.45
2019-02-25T03:36:48.469Z,8.70
2019-02-25T03:39:17.570Z,8.98
2019-02-25T03:41:46.748Z,11.10
2019-02-25T03:44:16.488Z,10.65
2019-02-25T03:46:44.990Z,9.73
2019-02-25T03:49:14.123Z,9.48
2019-02-25T03:51:42.797Z,10.98
2019-02-25T03:54:11.717Z,9.35
2019-02-25T03:56:40.198Z,9.70
2019-02-25T03:59:10.234Z,9.18
2019-02-25T04:01:39.182Z,10.70
2019-02-25T04:04:07.084Z,10.35
2019-02-25T04:06:35.396Z,8.10
2019-02-25T04:09:05.140Z,10.45
2019-02-25T04:11:33.607Z,9.65
2019-02-25T04:14:01.955Z,8.90
2019-02-25T04:16:30.601Z,11.43
2019-02-25T04:19:00.798Z,10.08
2019-02-25T04:21:29.902Z,8.08
2019-02-25T04:23:58.715Z,13.48
2019-02-25T04:26:27.907Z,9.53
2019-02-25T04:28:56.556Z,8.08
2019-02-25T04:31:26.061Z,9.70
2019-02-25T04:33:53.617Z,9.93
2019-02-25T04:36:20.920Z,10.68
2019-02-25T04:38:48.176Z,9.25
2019-02-25T04:41:15.655Z,7.75
2019-02-25T04:43:42.998Z,7.78
2019-02-25T04:46:11.246Z,11.43
2019-02-25T04:48:39.368Z,10.85
2019-02-25T04:51:07.689Z,8.68
2019-02-25T04:53:35.851Z,9.08
2019-02-25T04:56:04.278Z,7.62
2019-02-25T04:58:32.748Z,9.23
2019-02-25T05:01:01.388Z,9.83
2019-02-25T05:03:29.722Z,8.90
2019-02-25T05:05:57.381Z,12.20
2019-02-25T05:08:25.419Z,8.25
2019-02-25T05:10:53.435Z,10.53
2019-02-25T05:13:21.910Z,9.30
2019-02-25T05:15:49.966Z,8.50
2019-02-25T05:18:18.661Z,12.37
2019-02-25T05:20:47.434Z,11.05
2019-02-25T05:23:16.067Z,8.63
2019-02-25T05:25:46.245Z,8.98
2019-02-25T05:28:16.555Z,9.30
2019-02-25T05:30:44.609Z,11.78
2019-02-25T05:33:12.930Z,10.00
2019-02-25T05:35:41.712Z,9.78
2019-02-25T05:38:09.943Z,8.00
2019-02-25T05:40:37.112Z,11.22
2019-02-25T05:43:04.275Z,11.12
2019-02-25T05:45:34.440Z,7.95
2019-02-25T05:48:02.210Z,10.10
2019-02-25T05:50:30.628Z,10.82
2019-02-25T05:52:59.777Z,12.68
2019-02-25T05:55:29.038Z,9.00
2019-02-25T05:57:57.726Z,12.30
2019-02-25T06:00:26.675Z,10.78
2019-02-25T06:02:55.286Z,9.15
2019-02-25T06:05:24.094Z,9.75
2019-02-25T06:07:52.777Z,7.72
2019-02-25T06:10:21.254Z,16.75
2019-02-25T06:12:49.617Z,9.55
2019-02-25T06:15:18.541Z,12.30
2019-02-25T06:17:46.903Z,10.08
2019-02-25T06:20:14.426Z,9.08
2019-02-25T06:22:41.662Z,11.25
2019-02-25T06:25:13.658Z,12.07
2019-02-25T06:27:41.448Z,10.15
2019-02-25T06:30:13.984Z,10.70
2019-02-25T06:32:44.037Z,14.10
2019-02-25T06:35:14.779Z,14.58
2019-02-25T06:37:43.635Z,8.70
2019-02-25T06:40:15.318Z,13.00
2019-02-25T06:42:43.867Z,12.13
2019-02-25T06:45:17.928Z,10.88
2019-02-25T06:47:46.357Z,10.82
2019-02-25T06:50:15.213Z,9.68
2019-02-25T06:52:44.080Z,11.48
2019-02-25T06:55:13.371Z,12.82
2019-02-25T06:57:41.746Z,11.63
2019-02-25T07:00:11.899Z,9.95
2019-02-25T07:02:39.815Z,17.17
2019-02-25T07:05:20.378Z,10.93
2019-02-25T07:07:51.972Z,12.30
2019-02-25T07:10:39.806Z,10.65
2019-02-25T07:13:25.590Z,14.00
2019-02-25T07:16:18.646Z,11.73
2019-02-25T07:19:08.066Z,11.08
2019-02-25T07:21:56.158Z,11.05
2019-02-25T07:24:31.142Z,11.22
2019-02-25T07:27:22.117Z,8.30
2019-02-25T07:30:16.331Z,10.32
2019-02-25T07:33:01.379Z,15.43
2019-02-25T07:35:35.575Z,16.12
2019-02-25T07:38:23.055Z,16.35
2019-02-25T07:41:12.779Z,11.63
2019-02-25T07:43:50.609Z,14.20
2019-02-25T07:46:43.727Z,20.60
2019-02-25T07:49:45.849Z,16.87
2019-02-25T07:52:24.972Z,13.53
2019-02-25T07:55:15.981Z,11.97
2019-02-25T07:58:22.935Z,17.55
2019-02-25T08:01:03.554Z,16.32
2019-02-25T08:03:59.322Z,12.60
2019-02-25T08:06:46.674Z,8.85
2019-02-25T08:09:31.715Z,14.03
2019-02-25T08:12:22.415Z,10.78
2019-02-25T08:15:29.178Z,14.35
2019-02-25T08:18:24.200Z,9.45
2019-02-25T08:20:59.439Z,10.70
2019-02-25T08:23:54.446Z,13.90
2019-02-25T08:26:41.173Z,11.97
2019-02-25T08:29:34.876Z,13.40
2019-02-25T08:32:28.603Z,10.15
2019-02-25T08:35:19.762Z,8.10
2019-02-25T08:38:17.006Z,8.40
2019-02-25T08:41:16.353Z,12.40
2019-02-25T08:43:49.672Z,9.78
2019-02-25T08:46:39.532Z,9.90
2019-02-25T08:49:12.909Z,11.65
2019-02-25T08:51:40.213Z,10.45
2019-02-25T08:54:07.410Z,9.25
2019-02-25T08:56:40.331Z,11.00
2019-02-25T08:59:08.566Z,10.85
2019-02-25T09:01:36.781Z,10.25
2019-02-25T09:04:05.043Z,8.65
2019-02-25T09:06:33.134Z,11.50
2019-02-25T09:09:01.419Z,9.95
2019-02-25T09:11:33.483Z,7.08
2019-02-25T09:14:01.682Z,8.48
2019-02-25T09:16:29.867Z,10.13
2019-02-25T09:18:58.057Z,7.20
2019-02-25T09:21:31.590Z,6.55
2019-02-25T09:23:58.906Z,9.95
2019-02-25T09:26:26.877Z,9.65
2019-02-25T09:28:54.433Z,7.53
2019-02-25T09:31:21.746Z,8.88
2019-02-25T09:33:51.058Z,8.10
2019-02-25T09:36:19.178Z,9.60
2019-02-25T09:38:49.262Z,7.83
2019-02-25T09:41:17.430Z,6.60
2019-02-25T09:43:46.005Z,10.20
2019-02-25T09:46:14.207Z,13.35
2019-02-25T09:48:42.478Z,12.30
2019-02-25T09:51:11.352Z,13.55
2019-02-25T09:53:40.962Z,13.90
2019-02-25T09:56:08.382Z,14.05
2019-02-25T09:58:35.330Z,14.90
2019-02-25T10:01:04.187Z,14.78
2019-02-25T10:03:31.394Z,11.22
2019-02-25T10:05:59.572Z,15.90
2019-02-25T10:08:29.754Z,12.00
2019-02-25T10:10:57.948Z,11.68
2019-02-25T10:13:26.134Z,12.55
2019-02-25T10:15:54.371Z,11.33
2019-02-25T10:18:22.515Z,9.00
2019-02-25T10:20:52.325Z,9.88
2019-02-25T10:23:20.683Z,7.47
2019-02-25T10:25:47.921Z,5.37
2019-02-25T10:28:15.074Z,4.62
2019-02-25T10:30:42.314Z,5.65
2019-02-25T10:33:09.303Z,9.40
2019-02-25T10:35:38.710Z,5.70
2019-02-25T10:38:07.154Z,7.83
2019-02-25T10:40:35.422Z,9.10
2019-02-25T10:43:03.767Z,5.83
2019-02-25T10:45:31.946Z,6.40
2019-02-25T10:48:04.301Z,7.00
2019-02-25T10:50:33.483Z,4.33
2019-02-25T10:53:03.657Z,4.30
2019-02-25T10:55:35.020Z,3.60
2019-02-25T10:58:05.554Z,5.10
2019-02-25T11:00:35.218Z,4.07
2019-02-25T11:03:02.967Z,5.00
2019-02-25T11:05:31.257Z,5.23
2019-02-25T11:08:00.838Z,3.97
2019-02-25T11:10:37.616Z,5.80
2019-02-25T11:13:06.178Z,5.00
2019-02-25T11:15:36.906Z,3.50
2019-02-25T11:18:12.267Z,4.93
2019-02-25T11:20:40.694Z,3.80
2019-02-25T11:23:10.178Z,3.03
2019-02-25T11:25:40.154Z,5.00
2019-02-25T11:28:23.566Z,4.83
2019-02-25T11:30:44.882Z,3.73
2019-02-25T11:33:12.427Z,4.17
2019-02-25T11:35:42.842Z,3.53
2019-02-25T11:38:17.420Z,3.17
2019-02-25T11:40:45.610Z,4.40
2019-02-25T11:43:13.932Z,4.33
2019-02-25T11:45:43.545Z,3.33
2019-02-25T11:48:18.626Z,3.97
2019-02-25T11:50:47.100Z,5.73
2019-02-25T11:53:15.463Z,5.00
2019-02-25T11:55:44.184Z,5.00
2019-02-25T11:58:12.951Z,3.53
2019-02-25T12:00:43.368Z,4.73
2019-02-25T12:03:12.874Z,4.30
2019-02-25T12:05:41.363Z,3.70
2019-02-25T12:08:08.827Z,5.47
2019-02-25T12:10:36.680Z,5.23
2019-02-25T12:13:09.056Z,4.27
2019-02-25T12:15:37.594Z,4.70
2019-02-25T12:18:05.194Z,6.53
2019-02-25T12:20:32.993Z,4.93
2019-02-25T12:23:01.679Z,5.47
2019-02-25T12:25:33.566Z,3.60
2019-02-25T12:28:01.898Z,9.40
2019-02-25T12:30:30.514Z,11.43
2019-02-25T12:32:59.091Z,5.27
2019-02-25T12:35:27.296Z,4.73
2019-02-25T12:37:58.142Z,6.93
2019-02-25T12:40:25.313Z,7.60
2019-02-25T12:42:52.519Z,5.10
2019-02-25T12:45:20.690Z,4.00
2019-02-25T12:47:47.922Z,4.70
2019-02-25T12:50:15.268Z,5.13
2019-02-25T12:52:47.064Z,4.13
2019-02-25T12:55:15.308Z,4.17
2019-02-25T12:57:43.497Z,4.17
2019-02-25T13:00:12.892Z,4.60
2019-02-25T13:02:41.061Z,6.07
2019-02-25T13:05:12.536Z,5.53
2019-02-25T13:07:40.773Z,5.13
2019-02-25T13:10:10.473Z,4.37
2019-02-25T13:12:38.672Z,5.30
2019-02-25T13:15:13.370Z,4.73
2019-02-25T13:17:40.812Z,4.67
2019-02-25T13:20:08.261Z,4.97
2019-02-25T13:22:35.333Z,6.17
2019-02-25T13:25:05.476Z,4.83
2019-02-25T13:27:39.051Z,4.97
2019-02-25T13:30:10.121Z,5.37
2019-02-25T13:32:38.434Z,4.80
2019-02-25T13:35:09.388Z,7.87
2019-02-25T13:37:43.145Z,5.90
2019-02-25T13:40:11.545Z,5.43
2019-02-25T13:42:39.808Z,4.93
2019-02-25T13:45:10.329Z,5.97
2019-02-25T13:47:38.599Z,4.53
2019-02-25T13:50:09.359Z,6.97
2019-02-25T13:52:47.281Z,5.40
2019-02-25T13:55:08.274Z,5.43
2019-02-25T13:57:35.489Z,4.83
2019-02-25T14:00:04.605Z,5.87
2019-02-25T14:02:34.652Z,5.10
2019-02-25T14:05:02.023Z,5.60
2019-02-25T14:07:29.002Z,6.13
2019-02-25T14:09:57.095Z,5.67
2019-02-25T14:12:25.892Z,6.10
2019-02-25T14:14:54.161Z,7.50
2019-02-25T14:17:23.090Z,8.20
2019-02-25T14:19:52.067Z,5.50
2019-02-25T14:22:20.403Z,7.80
2019-02-25T14:24:48.610Z,5.77
2019-02-25T14:27:15.879Z,8.17
2019-02-25T14:29:44.653Z,7.93
2019-02-25T14:32:15.359Z,7.10
2019-02-25T14:34:44.418Z,6.00
2019-02-25T14:37:14.180Z,5.33
2019-02-25T14:39:43.330Z,6.40
2019-02-25T14:42:16.382Z,5.60
2019-02-25T14:44:46.003Z,6.73
2019-02-25T14:47:20.525Z,7.73
2019-02-25T14:49:44.774Z,10.80
2019-02-25T14:52:21.466Z,5.73
2019-02-25T14:54:49.644Z,6.60
2019-02-25T14:57:19.747Z,5.73
2019-02-25T14:59:49.067Z,7.47
2019-02-25T15:02:16.538Z,6.93
2019-02-25T15:05:17.313Z,5.67
2019-02-25T15:07:46.756Z,4.90
2019-02-25T15:10:15.212Z,6.10
2019-02-25T15:12:43.176Z,7.13
2019-02-25T15:15:16.994Z,4.87
2019-02-25T15:17:46.504Z,5.80
2019-02-25T15:20:18.624Z,4.70
2019-02-25T15:22:48.049Z,4.10
2019-02-25T15:25:19.545Z,4.63
2019-02-25T15:27:47.794Z,4.10
2019-02-25T15:30:20.400Z,5.23
2019-02-25T15:32:55.751Z,4.80
2019-02-25T15:35:19.462Z,4.80
2019-02-25T15:37:48.628Z,4.83
2019-02-25T15:40:20.340Z,4.60
2019-02-25T15:43:00.093Z,6.60
2019-02-25T15:45:35.422Z,6.90
2019-02-25T15:48:05.439Z,8.03
2019-02-25T15:50:36.003Z,10.10
2019-02-25T15:53:05.546Z,8.23
2019-02-25T15:55:39.133Z,10.47
2019-02-25T15:58:10.704Z,9.80
2019-02-25T16:00:43.565Z,9.10
2019-02-25T16:03:23.568Z,9.37
2019-02-25T16:06:13.669Z,8.77
2019-02-25T16:08:54.846Z,7.37
2019-02-25T16:11:25.666Z,6.10
2019-02-25T16:13:57.965Z,7.80
2019-02-25T16:16:31.913Z,7.57
2019-02-25T16:19:01.251Z,7.23
2019-02-25T16:21:29.929Z,6.60
2019-02-25T16:24:01.511Z,7.23
2019-02-25T16:26:32.062Z,7.73
2019-02-25T16:29:05.933Z,5.57
2019-02-25T16:31:33.716Z,5.33
2019-02-25T16:34:02.351Z,9.10
2019-02-25T16:36:31.078Z,8.23
2019-02-25T16:39:01.075Z,9.43
2019-02-25T16:41:32.334Z,6.67
2019-02-25T16:44:02.048Z,9.27
2019-02-25T16:46:38.751Z,7.50
2019-02-25T16:49:05.351Z,8.10
2019-02-25T16:51:36.943Z,7.90
2019-02-25T16:54:09.211Z,21.80
2019-02-25T16:56:35.262Z,33.33
2019-02-25T16:59:10.587Z,24.10
2019-02-25T17:01:34.988Z,16.50
2019-02-25T17:04:05.429Z,15.60
2019-02-25T17:06:34.277Z,12.57
2019-02-25T17:09:03.937Z,9.80
2019-02-25T17:11:32.401Z,13.33
2019-02-25T17:14:03.775Z,10.53
2019-02-25T17:16:32.064Z,10.77
2019-02-25T17:19:00.836Z,10.43
2019-02-25T17:21:34.492Z,9.10
2019-02-25T17:24:05.693Z,9.63
2019-02-25T17:26:33.907Z,9.50
2019-02-25T17:29:02.277Z,9.10
2019-02-25T17:31:32.357Z,6.70
2019-02-25T17:34:02.259Z,10.30
2019-02-25T17:36:31.479Z,10.70
2019-02-25T17:39:08.748Z,8.53
2019-02-25T17:41:37.708Z,10.23
2019-02-25T17:44:06.318Z,10.27
2019-02-25T17:46:39.129Z,13.80
2019-02-25T17:49:07.883Z,12.57
2019-02-25T17:51:36.057Z,11.07
2019-02-25T17:54:03.531Z,9.27
2019-02-25T17:56:51.938Z,13.83
2019-02-25T17:59:21.362Z,9.40
2019-02-25T18:01:50.576Z,10.60
2019-02-25T18:04:19.144Z,11.07
2019-02-25T18:06:52.625Z,15.23
2019-02-25T18:09:22.619Z,13.93
2019-02-25T18:11:51.431Z,13.77
2019-02-25T18:14:20.010Z,12.58
2019-02-25T18:16:53.828Z,14.40
2019-02-25T18:19:23.090Z,11.28
2019-02-25T18:21:52.695Z,14.13
2019-02-25T18:24:21.482Z,13.25
2019-02-25T18:26:50.386Z,17.27
2019-02-25T18:29:20.839Z,14.25
2019-02-25T18:31:50.923Z,14.33
2019-02-25T18:34:20.443Z,12.73
2019-02-25T18:37:03.539Z,14.73
2019-02-25T18:39:31.616Z,12.88
2019-02-25T18:42:00.259Z,15.45
2019-02-25T18:44:27.554Z,15.18
2019-02-25T18:46:54.833Z,11.70
2019-02-25T18:49:26.068Z,11.45
2019-02-25T18:51:54.614Z,10.72
2019-02-25T18:54:23.409Z,12.82
2019-02-25T18:56:52.736Z,15.83
2019-02-25T18:59:29.550Z,14.40
2019-02-25T19:01:57.795Z,20.92
2019-02-25T19:04:27.309Z,12.82
2019-02-25T19:06:54.865Z,13.15
2019-02-25T19:09:23.176Z,14.40
2019-02-25T19:11:53.517Z,16.02
2019-02-25T19:14:22.060Z,16.15
2019-02-25T19:16:50.277Z,14.30
2019-02-25T19:19:19.301Z,14.23
2019-02-25T19:21:58.772Z,18.17
2019-02-25T19:24:27.846Z,18.87
2019-02-25T19:26:56.495Z,16.65
2019-02-25T19:29:25.999Z,18.17
2019-02-25T19:32:01.203Z,15.65
2019-02-25T19:34:30.962Z,14.25
2019-02-25T19:37:02.224Z,15.20
2019-02-25T19:39:33.651Z,16.50
2019-02-25T19:42:06.938Z,13.53
2019-02-25T19:44:38.578Z,17.42
2019-02-25T19:47:07.991Z,16.70
2019-02-25T19:49:43.476Z,17.07
2019-02-25T19:52:14.429Z,16.75
2019-02-25T19:54:45.681Z,18.60
2019-02-25T19:57:18.166Z,17.27
2019-02-25T19:59:48.679Z,20.43
2019-02-25T20:02:16.622Z,15.70
2019-02-25T20:04:49.507Z,17.20
2019-02-25T20:07:20.168Z,17.27
2019-02-25T20:09:47.410Z,19.20
2019-02-25T20:12:16.352Z,17.32
2019-02-25T20:14:46.556Z,19.20
2019-02-25T20:17:16.970Z,18.02
2019-02-25T20:19:50.148Z,18.25
2019-02-25T20:22:18.741Z,16.60
2019-02-25T20:24:48.257Z,15.83
2019-02-25T20:27:18.352Z,15.35
2019-02-25T20:29:52.765Z,16.65
2019-02-25T20:32:21.908Z,15.60
2019-02-25T20:34:52.345Z,18.87
2019-02-25T20:37:22.933Z,17.02
2019-02-25T20:39:52.197Z,18.25
2019-02-25T20:42:22.286Z,16.82
2019-02-25T20:44:53.014Z,19.17
2019-02-25T20:47:22.375Z,15.30
2019-02-25T20:49:56.083Z,17.42
2019-02-25T20:52:25.623Z,13.70
2019-02-25T20:54:53.881Z,15.38
2019-02-25T20:57:22.433Z,17.20
2019-02-25T20:59:51.075Z,15.58
2019-02-25T21:02:21.261Z,14.20
2019-02-25T21:04:52.244Z,14.28
2019-02-25T21:07:20.534Z,12.30
2019-02-25T21:09:49.988Z,13.05
2019-02-25T21:12:22.950Z,14.15
2019-02-25T21:14:51.304Z,13.75
2019-02-25T21:17:19.689Z,13.45
2019-02-25T21:19:48.018Z,14.93
2019-02-25T21:22:16.216Z,16.75
2019-02-25T21:24:54.093Z,15.68
2019-02-25T21:27:20.706Z,15.60
2019-02-25T21:29:52.887Z,14.73
2019-02-25T21:32:19.897Z,12.07
2019-02-25T21:34:52.771Z,18.25
2019-02-25T21:37:21.361Z,13.03
2019-02-25T21:39:50.451Z,13.75
2019-02-25T21:42:20.225Z,13.28
2019-02-25T21:44:50.773Z,13.48
2019-02-25T21:47:20.312Z,13.88
2019-02-25T21:49:52.481Z,15.18
2019-02-25T21:52:21.023Z,16.12
2019-02-25T21:54:50.253Z,17.70
2019-02-25T21:57:18.702Z,13.80
2019-02-25T21:59:47.555Z,14.73
2019-02-25T22:02:15.873Z,11.45
2019-02-25T22:04:45.493Z,16.45
2019-02-25T22:07:19.409Z,13.38
2019-02-25T22:09:45.921Z,12.10
2019-02-25T22:12:14.115Z,12.13
2019-02-25T22:14:43.383Z,11.97
2019-02-25T22:17:13.432Z,15.08
2019-02-25T22:19:43.711Z,19.05
2019-02-25T22:22:14.618Z,12.28
2019-02-25T22:24:42.840Z,14.18
2019-02-25T22:27:11.914Z,12.98
2019-02-25T22:29:43.139Z,13.70
2019-02-25T22:32:11.854Z,11.80
2019-02-25T22:34:40.851Z,13.80
2019-02-25T22:37:12.444Z,13.83
2019-02-25T22:39:40.870Z,14.03
2019-02-25T22:42:09.995Z,11.83
2019-02-25T22:44:40.129Z,10.85
2019-02-25T22:47:09.812Z,12.82
2019-02-25T22:49:39.300Z,12.88
2019-02-25T22:52:07.527Z,12.68
2019-02-25T22:54:39.064Z,14.38
2019-02-25T22:57:07.388Z,13.28
2019-02-25T22:59:35.867Z,11.85
2019-02-25T23:02:04.151Z,13.55
2019-02-25T23:04:32.856Z,15.30
2019-02-25T23:07:01.487Z,14.43
2019-02-25T23:09:29.622Z,12.45
2019-02-25T23:11:57.834Z,14.73
2019-02-25T23:14:26.078Z,12.60
2019-02-25T23:16:54.542Z,12.82
2019-02-25T23:19:23.050Z,15.50
2019-02-25T23:21:52.026Z,13.10
2019-02-25T23:24:25.947Z,14.15
2019-02-25T23:26:55.108Z,13.93
2019-02-25T23:29:26.662Z,14.73
2019-02-25T23:31:54.742Z,13.70
2019-02-25T23:34:23.817Z,13.03
2019-02-25T23:36:54.389Z,16.02
2019-02-25T23:39:22.602Z,13.18
2019-02-25T23:41:51.545Z,13.62
2019-02-25T23:44:22.189Z,12.90
2019-02-25T23:46:55.375Z,15.28
2019-02-25T23:49:27.316Z,10.85
2019-02-25T23:51:53.034Z,13.58
2019-02-25T23:54:23.231Z,12.05
2019-02-25T23:56:54.024Z,12.35
2019-02-25T23:59:24.771Z,11.12
